createdAt,value
2022-08-23T00:01:43.609Z,15.30
2022-08-23T00:06:46.468Z,15.30
2022-08-23T00:11:49.194Z,15.30
2022-08-23T00:16:52.065Z,15.10
2022-08-23T00:21:54.921Z,15.10
2022-08-23T00:27:04.970Z,15.10
2022-08-23T00:32:07.931Z,15.20
2022-08-23T00:37:10.711Z,15.20
2022-08-23T00:42:27.290Z,15.00
2022-08-23T00:47:43.078Z,14.90
2022-08-23T00:52:48.757Z,14.70
2022-08-23T00:57:51.597Z,14.70
2022-08-23T01:02:54.977Z,14.70
2022-08-23T01:07:57.819Z,14.50
2022-08-23T01:13:00.997Z,14.50
2022-08-23T01:18:03.862Z,14.50
2022-08-23T01:23:07.353Z,14.30
2022-08-23T01:28:10.543Z,14.40
2022-08-23T01:33:13.410Z,14.30
2022-08-23T01:38:26.300Z,14.30
2022-08-23T01:43:34.941Z,14.20
2022-08-23T01:48:37.672Z,14.10
2022-08-23T01:53:40.874Z,14.20
2022-08-23T01:58:43.653Z,14.20
2022-08-23T02:03:46.866Z,14.20
2022-08-23T02:09:05.683Z,14.20
2022-08-23T02:14:20.387Z,13.90
2022-08-23T02:19:23.205Z,13.70
2022-08-23T02:24:26.117Z,13.50
2022-08-23T02:29:29.795Z,13.50
2022-08-23T02:34:33.534Z,13.30
2022-08-23T02:39:38.870Z,13.20
2022-08-23T02:49:46.185Z,12.80
2022-08-23T02:54:48.906Z,12.90
2022-08-23T02:59:52.337Z,12.80
2022-08-23T03:04:55.495Z,12.80
2022-08-23T03:09:58.617Z,12.80
2022-08-23T03:15:01.486Z,12.70
2022-08-23T03:25:11.998Z,12.60
2022-08-23T03:30:19.296Z,12.60
2022-08-23T03:35:22.635Z,12.60
2022-08-23T03:40:25.459Z,12.70
2022-08-23T03:45:28.297Z,12.80
2022-08-23T03:50:31.017Z,12.90
2022-08-23T03:55:34.545Z,12.80
2022-08-23T04:00:45.061Z,12.80
2022-08-23T04:05:48.021Z,12.90
2022-08-23T04:15:55.235Z,12.80
2022-08-23T04:26:02.936Z,13.00
2022-08-23T04:31:05.789Z,12.90
2022-08-23T04:36:08.633Z,12.90
2022-08-23T04:41:29.185Z,12.90
2022-08-23T04:51:37.001Z,13.10
2022-08-23T04:56:39.854Z,13.20
2022-08-23T05:01:42.846Z,13.40
2022-08-23T05:21:57.169Z,14.60
2022-08-23T17:22:53.232Z,23.50
2022-08-23T17:27:56.170Z,23.40
2022-08-23T17:32:59.913Z,23.30
2022-08-23T17:38:03.065Z,23.10
2022-08-23T17:43:05.742Z,23.00
2022-08-23T17:48:08.494Z,23.00
2022-08-23T17:53:12.510Z,22.90
2022-08-23T17:58:15.440Z,22.60
2022-08-23T18:03:20.543Z,22.50
2022-08-23T18:08:23.382Z,22.30
2022-08-23T18:13:26.876Z,22.10
2022-08-23T18:18:30.374Z,22.00
2022-08-23T18:23:33.113Z,21.80
2022-08-23T18:28:35.871Z,21.60
2022-08-23T18:33:46.871Z,21.40
2022-08-23T18:38:50.478Z,21.20
2022-08-23T18:43:54.086Z,21.10
2022-08-23T18:48:57.461Z,21.00
2022-08-23T18:54:00.684Z,20.90
2022-08-23T18:59:03.489Z,20.70
2022-08-23T19:04:06.218Z,20.60
2022-08-23T19:09:08.967Z,20.50
2022-08-23T19:14:15.694Z,20.30
2022-08-23T19:19:18.732Z,20.20
2022-08-23T19:24:23.713Z,20.10
2022-08-23T19:29:36.428Z,20.00
2022-08-23T19:34:41.215Z,19.80
2022-08-23T19:39:54.083Z,19.70
2022-08-23T19:44:56.854Z,19.60
2022-08-23T19:49:59.586Z,19.50
2022-08-23T19:55:13.446Z,19.40
2022-08-23T20:00:31.271Z,19.40
2022-08-23T20:05:45.319Z,19.30
2022-08-23T20:10:48.216Z,19.20
2022-08-23T20:15:55.547Z,19.10
2022-08-23T20:21:05.961Z,19.00
2022-08-23T20:26:08.948Z,18.90
2022-08-23T20:31:11.826Z,18.80
2022-08-23T20:36:14.562Z,18.80
2022-08-23T20:41:17.564Z,18.70
2022-08-23T20:46:20.798Z,18.60
2022-08-23T20:51:23.696Z,18.50
2022-08-23T20:56:28.169Z,18.50
2022-08-23T21:01:31.028Z,18.40
2022-08-23T21:06:34.080Z,18.30
2022-08-23T21:11:36.831Z,18.30
2022-08-23T21:16:39.539Z,18.20
2022-08-23T21:21:42.442Z,18.10
2022-08-23T21:26:45.476Z,18.00
2022-08-23T21:31:48.292Z,17.90
2022-08-23T21:36:51.448Z,17.90
2022-08-23T21:41:56.068Z,17.90
2022-08-23T21:46:59.688Z,17.80
2022-08-23T21:52:02.504Z,17.80
2022-08-23T21:57:05.923Z,17.70
2022-08-23T22:02:08.722Z,17.60
2022-08-23T22:07:11.812Z,17.50
2022-08-23T22:12:14.793Z,17.50
2022-08-23T22:17:18.005Z,17.50
2022-08-23T22:22:21.452Z,17.50
2022-08-23T22:27:24.329Z,17.50
2022-08-23T22:32:27.070Z,17.50
2022-08-23T22:37:30.154Z,17.40
2022-08-23T22:42:33.609Z,17.20
2022-08-23T22:47:38.792Z,17.10
2022-08-23T22:52:42.427Z,16.90
2022-08-23T22:57:45.566Z,16.80
2022-08-23T23:02:48.277Z,16.60
2022-08-23T23:08:08.660Z,16.60
2022-08-23T23:13:11.418Z,16.50
2022-08-23T23:18:14.712Z,16.40
2022-08-23T23:23:17.455Z,16.40
2022-08-23T23:28:20.182Z,16.30
2022-08-23T23:33:23.266Z,16.20
2022-08-23T23:38:25.970Z,16.10
2022-08-23T23:43:28.708Z,16.00
2022-08-23T23:48:31.427Z,16.00
2022-08-23T23:53:34.349Z,15.90
2022-08-23T23:58:38.532Z,15.90
